Unionville, Louisiana
Current Conditions -  °F | °C
As of 1:15 AM on Thursday 18 Dec 2014 (Local Time) from KRSN Reporting Station
Overcast Overcast  
Wind Chill: 41°   Ceiling: 4100
Heat Index: 45°   Visibility: 10mi
Dew Point: 42°   Wind: 7mph
Humidity: 89%   Direction: 40°NE
Pressure: 30.24"   Gusts: NA
Location:  32.6988°N, 92.6981°W
Report Text: KRSN 180715Z AUTO 04006KT 10SM OVC041 07/05 A3024 RMK AO2 T00700053
Loading
Personal Weather Stations






























Interactive Weather Map New forecast layout! Learn more

10-Day Weather Forecast

Advertisements
Track Severe Weather on mobile